sensor_id;sensor_type;location;lat;lon;timestamp;pressure;altitude;pressure_sealevel;temperature;humidity
56040;BME280;43937;41.366;2.072;2022-09-12T00:00:38;100715.63;;;24.91;96.74
56040;BME280;43937;41.366;2.072;2022-09-12T00:03:03;100716.19;;;24.93;97.48
56040;BME280;43937;41.366;2.072;2022-09-12T00:05:29;100720.09;;;24.92;97.16
56040;BME280;43937;41.366;2.072;2022-09-12T00:07:55;100721.97;;;24.86;97.90
56040;BME280;43937;41.366;2.072;2022-09-12T00:10:21;100725.03;;;24.85;97.74
56040;BME280;43937;41.366;2.072;2022-09-12T00:12:46;100728.44;;;24.92;97.19
56040;BME280;43937;41.366;2.072;2022-09-12T00:15:12;100720.91;;;24.92;97.60
56040;BME280;43937;41.366;2.072;2022-09-12T00:17:37;100721.44;;;24.89;97.20
56040;BME280;43937;41.366;2.072;2022-09-12T00:20:04;100712.69;;;24.76;97.40
56040;BME280;43937;41.366;2.072;2022-09-12T00:22:31;100716.31;;;24.76;98.32
56040;BME280;43937;41.366;2.072;2022-09-12T00:24:57;100720.50;;;24.79;98.48
56040;BME280;43937;41.366;2.072;2022-09-12T00:27:22;100716.22;;;24.71;98.76
56040;BME280;43937;41.366;2.072;2022-09-12T00:29:48;100708.63;;;24.61;99.40
56040;BME280;43937;41.366;2.072;2022-09-12T00:32:13;100713.34;;;24.61;99.81
56040;BME280;43937;41.366;2.072;2022-09-12T00:34:39;100703.66;;;24.63;100.00
56040;BME280;43937;41.366;2.072;2022-09-12T00:37:04;100702.53;;;24.64;99.49
56040;BME280;43937;41.366;2.072;2022-09-12T00:39:29;100687.03;;;24.74;98.61
56040;BME280;43937;41.366;2.072;2022-09-12T00:41:55;100687.34;;;24.77;99.03
56040;BME280;43937;41.366;2.072;2022-09-12T00:46:56;100664.78;;;24.74;98.80
56040;BME280;43937;41.366;2.072;2022-09-12T00:49:32;100679.28;;;25.03;97.44
56040;BME280;43937;41.366;2.072;2022-09-12T00:52:08;100672.22;;;24.95;97.58
56040;BME280;43937;41.366;2.072;2022-09-12T00:54:42;100664.97;;;24.94;98.15
56040;BME280;43937;41.366;2.072;2022-09-12T00:57:10;100659.63;;;25.15;96.79
56040;BME280;43937;41.366;2.072;2022-09-12T00:59:48;100651.47;;;25.40;95.34
56040;BME280;43937;41.366;2.072;2022-09-12T01:02:14;100646.28;;;25.59;93.50
56040;BME280;43937;41.366;2.072;2022-09-12T01:04:41;100642.22;;;25.77;92.46
56040;BME280;43937;41.366;2.072;2022-09-12T01:07:07;100634.97;;;25.76;92.51
56040;BME280;43937;41.366;2.072;2022-09-12T01:09:36;100634.97;;;25.76;92.18
56040;BME280;43937;41.366;2.072;2022-09-12T01:12:04;100627.41;;;25.71;92.01
56040;BME280;43937;41.366;2.072;2022-09-12T01:14:30;100625.78;;;25.80;91.18
56040;BME280;43937;41.366;2.072;2022-09-12T01:16:57;100627.69;;;25.70;91.84
56040;BME280;43937;41.366;2.072;2022-09-12T01:20:04;100619.25;;;25.59;92.37
56040;BME280;43937;41.366;2.072;2022-09-12T01:30:54;100620.31;;;24.84;95.22
56040;BME280;43937;41.366;2.072;2022-09-12T01:41:47;100642.06;;;24.60;98.11
56040;BME280;43937;41.366;2.072;2022-09-12T01:47:11;100642.13;;;24.16;100.00
56040;BME280;43937;41.366;2.072;2022-09-12T01:57:53;100626.97;;;24.07;100.00
56040;BME280;43937;41.366;2.072;2022-09-12T02:00:20;100633.19;;;24.14;100.00
56040;BME280;43937;41.366;2.072;2022-09-12T02:02:59;100609.59;;;23.94;100.00
56040;BME280;43937;41.366;2.072;2022-09-12T02:05:30;100631.19;;;24.09;100.00
56040;BME280;43937;41.366;2.072;2022-09-12T02:08:04;100626.72;;;24.08;100.00
56040;BME280;43937;41.366;2.072;2022-09-12T02:10:42;100625.03;;;24.07;100.00
56040;BME280;43937;41.366;2.072;2022-09-12T02:13:28;100602.72;;;24.02;100.00
56040;BME280;43937;41.366;2.072;2022-09-12T02:16:08;100624.00;;;24.13;100.00
56040;BME280;43937;41.366;2.072;2022-09-12T02:18:38;100616.09;;;24.05;100.00
56040;BME280;43937;41.366;2.072;2022-09-12T02:21:06;100608.16;;;24.14;100.00
56040;BME280;43937;41.366;2.072;2022-09-12T02:23:33;100596.66;;;24.05;100.00
56040;BME280;43937;41.366;2.072;2022-09-12T02:26:07;100612.34;;;24.16;100.00
56040;BME280;43937;41.366;2.072;2022-09-12T02:28:38;100593.34;;;24.08;100.00
56040;BME280;43937;41.366;2.072;2022-09-12T02:34:56;100602.53;;;24.31;100.00
56040;BME280;43937;41.366;2.072;2022-09-12T02:37:44;100591.38;;;24.31;100.00
56040;BME280;43937;41.366;2.072;2022-09-12T02:39:39;100572.91;;;24.19;100.00
56040;BME280;43937;41.366;2.072;2022-09-12T02:42:05;100593.59;;;24.29;100.00
56040;BME280;43937;41.366;2.072;2022-09-12T02:44:32;100587.72;;;24.25;100.00
56040;BME280;43937;41.366;2.072;2022-09-12T02:47:18;100594.41;;;24.29;100.00
56040;BME280;43937;41.366;2.072;2022-09-12T02:51:23;100602.00;;;24.34;100.00
56040;BME280;43937;41.366;2.072;2022-09-12T02:53:50;100594.09;;;24.26;100.00
56040;BME280;43937;41.366;2.072;2022-09-12T02:56:20;100587.41;;;24.21;100.00
56040;BME280;43937;41.366;2.072;2022-09-12T02:58:48;100586.56;;;24.21;100.00
56040;BME280;43937;41.366;2.072;2022-09-12T03:05:55;100585.38;;;24.17;100.00
56040;BME280;43937;41.366;2.072;2022-09-12T03:08:50;100595.75;;;24.21;100.00
56040;BME280;43937;41.366;2.072;2022-09-12T03:16:23;100593.41;;;24.13;100.00
56040;BME280;43937;41.366;2.072;2022-09-12T03:22:05;100603.56;;;24.25;100.00
56040;BME280;43937;41.366;2.072;2022-09-12T03:24:38;100604.59;;;24.18;100.00
56040;BME280;43937;41.366;2.072;2022-09-12T03:27:34;100612.03;;;24.13;100.00
56040;BME280;43937;41.366;2.072;2022-09-12T03:30:03;100612.03;;;24.13;100.00
56040;BME280;43937;41.366;2.072;2022-09-12T03:32:49;100610.03;;;24.08;100.00
56040;BME280;43937;41.366;2.072;2022-09-12T03:35:17;100609.84;;;24.15;100.00
56040;BME280;43937;41.366;2.072;2022-09-12T03:37:43;100611.97;;;24.08;100.00
56040;BME280;43937;41.366;2.072;2022-09-12T03:40:09;100604.22;;;24.10;100.00
56040;BME280;43937;41.366;2.072;2022-09-12T03:42:36;100605.50;;;24.02;100.00
56040;BME280;43937;41.366;2.072;2022-09-12T03:45:02;100596.31;;;24.02;100.00
56040;BME280;43937;41.366;2.072;2022-09-12T03:47:28;100598.88;;;24.03;100.00
56040;BME280;43937;41.366;2.072;2022-09-12T03:49:53;100593.88;;;24.05;100.00
56040;BME280;43937;41.366;2.072;2022-09-12T03:52:19;100592.50;;;24.08;100.00
56040;BME280;43937;41.366;2.072;2022-09-12T03:54:45;100588.81;;;24.02;100.00
56040;BME280;43937;41.366;2.072;2022-09-12T03:57:10;100586.44;;;24.11;100.00
56040;BME280;43937;41.366;2.072;2022-09-12T03:59:36;100583.91;;;24.09;100.00
56040;BME280;43937;41.366;2.072;2022-09-12T04:02:02;100575.00;;;24.07;100.00
56040;BME280;43937;41.366;2.072;2022-09-12T04:04:27;100568.03;;;23.83;100.00
56040;BME280;43937;41.366;2.072;2022-09-12T04:06:53;100584.50;;;23.89;100.00
56040;BME280;43937;41.366;2.072;2022-09-12T04:09:18;100597.06;;;23.92;100.00
56040;BME280;43937;41.366;2.072;2022-09-12T04:11:43;100591.03;;;24.00;100.00
56040;BME280;43937;41.366;2.072;2022-09-12T04:14:09;100588.25;;;24.00;100.00
56040;BME280;43937;41.366;2.072;2022-09-12T04:16:34;100585.50;;;24.27;100.00
56040;BME280;43937;41.366;2.072;2022-09-12T04:19:00;100602.38;;;24.20;100.00
56040;BME280;43937;41.366;2.072;2022-09-12T04:21:26;100599.88;;;24.19;100.00
56040;BME280;43937;41.366;2.072;2022-09-12T04:23:51;100599.06;;;23.96;100.00
56040;BME280;43937;41.366;2.072;2022-09-12T04:28:12;100603.88;;;23.84;100.00
56040;BME280;43937;41.366;2.072;2022-09-12T04:30:37;100591.28;;;23.76;100.00
56040;BME280;43937;41.366;2.072;2022-09-12T04:33:03;100596.34;;;23.80;100.00
56040;BME280;43937;41.366;2.072;2022-09-12T04:35:28;100594.16;;;23.82;100.00
56040;BME280;43937;41.366;2.072;2022-09-12T04:37:53;100584.50;;;23.89;100.00
56040;BME280;43937;41.366;2.072;2022-09-12T04:40:19;100580.44;;;23.97;100.00
56040;BME280;43937;41.366;2.072;2022-09-12T04:42:45;100580.22;;;24.04;100.00
56040;BME280;43937;41.366;2.072;2022-09-12T04:45:10;100575.50;;;24.04;100.00
56040;BME280;43937;41.366;2.072;2022-09-12T04:47:37;100573.44;;;24.16;100.00
56040;BME280;43937;41.366;2.072;2022-09-12T04:50:02;100578.19;;;24.43;100.00
56040;BME280;43937;41.366;2.072;2022-09-12T04:52:28;100580.31;;;24.36;100.00
56040;BME280;43937;41.366;2.072;2022-09-12T04:54:53;100567.56;;;24.13;100.00
56040;BME280;43937;41.366;2.072;2022-09-12T04:57:19;100580.34;;;24.14;100.00
56040;BME280;43937;41.366;2.072;2022-09-12T04:59:44;100595.22;;;24.25;100.00
56040;BME280;43937;41.366;2.072;2022-09-12T05:02:10;100578.56;;;24.03;100.00
56040;BME280;43937;41.366;2.072;2022-09-12T05:04:35;100594.38;;;24.02;100.00
56040;BME280;43937;41.366;2.072;2022-09-12T05:07:02;100592.06;;;23.94;100.00
56040;BME280;43937;41.366;2.072;2022-09-12T05:09:28;100576.97;;;23.85;100.00
56040;BME280;43937;41.366;2.072;2022-09-12T05:11:53;100586.53;;;23.94;100.00
56040;BME280;43937;41.366;2.072;2022-09-12T05:14:19;100587.44;;;23.99;100.00
56040;BME280;43937;41.366;2.072;2022-09-12T05:16:44;100582.38;;;23.96;100.00
56040;BME280;43937;41.366;2.072;2022-09-12T05:19:10;100592.31;;;24.14;100.00
56040;BME280;43937;41.366;2.072;2022-09-12T05:21:36;100597.00;;;24.09;100.00
56040;BME280;43937;41.366;2.072;2022-09-12T05:24:02;100591.16;;;24.10;100.00
56040;BME280;43937;41.366;2.072;2022-09-12T05:26:29;100588.16;;;24.17;100.00
56040;BME280;43937;41.366;2.072;2022-09-12T05:28:55;100589.22;;;24.11;100.00
56040;BME280;43937;41.366;2.072;2022-09-12T05:31:25;100584.97;;;24.03;100.00
56040;BME280;43937;41.366;2.072;2022-09-12T05:33:52;100592.19;;;24.04;100.00
56040;BME280;43937;41.366;2.072;2022-09-12T05:37:06;100593.03;;;24.05;100.00
56040;BME280;43937;41.366;2.072;2022-09-12T05:39:32;100581.28;;;23.97;100.00
56040;BME280;43937;41.366;2.072;2022-09-12T05:41:57;100588.00;;;24.02;100.00
56040;BME280;43937;41.366;2.072;2022-09-12T05:44:23;100570.47;;;24.01;100.00
56040;BME280;43937;41.366;2.072;2022-09-12T05:46:49;100577.63;;;24.19;100.00
56040;BME280;43937;41.366;2.072;2022-09-12T05:49:15;100574.78;;;24.14;100.00
56040;BME280;43937;41.366;2.072;2022-09-12T05:51:43;100582.59;;;24.39;100.00
56040;BME280;43937;41.366;2.072;2022-09-12T05:55:39;100576.97;;;24.61;100.00
56040;BME280;43937;41.366;2.072;2022-09-12T05:58:06;100580.69;;;24.72;100.00
56040;BME280;43937;41.366;2.072;2022-09-12T06:00:31;100582.75;;;24.81;100.00
56040;BME280;43937;41.366;2.072;2022-09-12T06:02:57;100598.75;;;25.01;100.00
56040;BME280;43937;41.366;2.072;2022-09-12T06:06:49;100595.06;;;25.23;97.97
56040;BME280;43937;41.366;2.072;2022-09-12T06:09:15;100591.78;;;25.31;97.36
56040;BME280;43937;41.366;2.072;2022-09-12T06:11:41;100590.75;;;25.47;96.38
56040;BME280;43937;41.366;2.072;2022-09-12T06:14:08;100572.56;;;25.34;95.87
56040;BME280;43937;41.366;2.072;2022-09-12T06:16:34;100587.75;;;25.54;94.80
56040;BME280;43937;41.366;2.072;2022-09-12T06:19:02;100577.19;;;25.61;94.36
56040;BME280;43937;41.366;2.072;2022-09-12T06:21:29;100576.91;;;25.57;94.21
56040;BME280;43937;41.366;2.072;2022-09-12T06:24:00;100588.03;;;25.57;94.61
56040;BME280;43937;41.366;2.072;2022-09-12T06:26:26;100566.38;;;25.75;92.67
56040;BME280;43937;41.366;2.072;2022-09-12T06:28:53;100569.34;;;26.16;89.85
56040;BME280;43937;41.366;2.072;2022-09-12T06:31:31;100582.53;;;26.36;88.64
56040;BME280;43937;41.366;2.072;2022-09-12T06:34:00;100583.66;;;27.57;82.96
56040;BME280;43937;41.366;2.072;2022-09-12T06:36:35;100580.44;;;29.52;71.83
56040;BME280;43937;41.366;2.072;2022-09-12T06:39:04;100577.31;;;30.26;67.16
56040;BME280;43937;41.366;2.072;2022-09-12T06:41:31;100590.22;;;30.27;66.44
56040;BME280;43937;41.366;2.072;2022-09-12T06:43:57;100589.25;;;31.07;63.87
56040;BME280;43937;41.366;2.072;2022-09-12T06:46:23;100586.50;;;31.81;60.84
56040;BME280;43937;41.366;2.072;2022-09-12T06:48:49;100592.19;;;32.31;58.17
56040;BME280;43937;41.366;2.072;2022-09-12T06:51:16;100602.53;;;32.72;56.64
56040;BME280;43937;41.366;2.072;2022-09-12T06:53:43;100600.16;;;32.15;58.00
56040;BME280;43937;41.366;2.072;2022-09-12T06:56:09;100606.84;;;30.99;62.30
56040;BME280;43937;41.366;2.072;2022-09-12T06:58:35;100603.88;;;32.38;56.47
56040;BME280;43937;41.366;2.072;2022-09-12T07:03:31;100597.16;;;30.10;64.46
56040;BME280;43937;41.366;2.072;2022-09-12T07:06:02;100622.44;;;29.62;65.79
56040;BME280;43937;41.366;2.072;2022-09-12T07:08:28;100626.06;;;28.60;70.66
56040;BME280;43937;41.366;2.072;2022-09-12T07:10:55;100601.19;;;27.89;74.13
56040;BME280;43937;41.366;2.072;2022-09-12T07:13:23;100616.34;;;27.72;75.12
56040;BME280;43937;41.366;2.072;2022-09-12T07:15:48;100619.19;;;27.47;76.68
56040;BME280;43937;41.366;2.072;2022-09-12T07:18:14;100605.53;;;27.25;78.42
56040;BME280;43937;41.366;2.072;2022-09-12T07:20:39;100621.44;;;27.29;77.21
56040;BME280;43937;41.366;2.072;2022-09-12T07:23:06;100609.13;;;27.10;78.01
56040;BME280;43937;41.366;2.072;2022-09-12T07:25:31;100600.88;;;28.55;73.09
56040;BME280;43937;41.366;2.072;2022-09-12T07:27:56;100617.91;;;32.66;56.33
56040;BME280;43937;41.366;2.072;2022-09-12T07:30:22;100605.66;;;31.79;58.53
56040;BME280;43937;41.366;2.072;2022-09-12T07:32:54;100624.69;;;34.35;50.73
56040;BME280;43937;41.366;2.072;2022-09-12T07:35:20;100636.28;;;34.07;50.82
56040;BME280;43937;41.366;2.072;2022-09-12T07:37:46;100631.88;;;32.71;54.60
56040;BME280;43937;41.366;2.072;2022-09-12T07:40:11;100628.06;;;30.91;59.70
56040;BME280;43937;41.366;2.072;2022-09-12T07:42:36;100645.63;;;30.16;62.30
56040;BME280;43937;41.366;2.072;2022-09-12T07:45:02;100642.78;;;29.97;64.23
56040;BME280;43937;41.366;2.072;2022-09-12T07:47:28;100654.19;;;29.82;64.75
56040;BME280;43937;41.366;2.072;2022-09-12T07:49:53;100647.22;;;31.41;59.95
56040;BME280;43937;41.366;2.072;2022-09-12T07:52:18;100652.81;;;33.15;53.64
56040;BME280;43937;41.366;2.072;2022-09-12T07:54:44;100645.91;;;32.99;53.42
56040;BME280;43937;41.366;2.072;2022-09-12T07:57:10;100653.16;;;32.00;56.80
56040;BME280;43937;41.366;2.072;2022-09-12T07:59:35;100641.50;;;30.56;60.82
56040;BME280;43937;41.366;2.072;2022-09-12T08:02:10;100652.59;;;29.76;64.22
56040;BME280;43937;41.366;2.072;2022-09-12T08:04:37;100644.97;;;29.47;65.52
56040;BME280;43937;41.366;2.072;2022-09-12T08:07:02;100648.47;;;29.34;67.32
56040;BME280;43937;41.366;2.072;2022-09-12T08:09:28;100651.72;;;29.17;67.58
56040;BME280;43937;41.366;2.072;2022-09-12T08:11:54;100645.03;;;30.62;63.75
56040;BME280;43937;41.366;2.072;2022-09-12T08:14:19;100660.47;;;35.61;48.63
56040;BME280;43937;41.366;2.072;2022-09-12T08:16:45;100656.47;;;36.00;45.59
56040;BME280;43937;41.366;2.072;2022-09-12T08:19:12;100654.50;;;37.23;43.15
56040;BME280;43937;41.366;2.072;2022-09-12T08:21:37;100664.78;;;38.56;40.75
56040;BME280;43937;41.366;2.072;2022-09-12T08:24:04;100659.59;;;38.98;40.22
56040;BME280;43937;41.366;2.072;2022-09-12T08:26:31;100664.53;;;39.57;39.29
56040;BME280;43937;41.366;2.072;2022-09-12T08:28:57;100656.22;;;39.08;38.30
56040;BME280;43937;41.366;2.072;2022-09-12T08:31:24;100671.72;;;38.83;39.65
56040;BME280;43937;41.366;2.072;2022-09-12T08:33:51;100669.78;;;38.99;40.03
56040;BME280;43937;41.366;2.072;2022-09-12T08:36:23;100671.41;;;38.23;41.29
56040;BME280;43937;41.366;2.072;2022-09-12T08:38:53;100657.78;;;36.71;45.77
56040;BME280;43937;41.366;2.072;2022-09-12T08:49:28;100663.28;;;36.88;46.01
56040;BME280;43937;41.366;2.072;2022-09-12T08:51:55;100650.34;;;34.64;52.61
56040;BME280;43937;41.366;2.072;2022-09-12T08:54:25;100665.91;;;33.11;58.22
56040;BME280;43937;41.366;2.072;2022-09-12T08:56:56;100667.00;;;32.88;60.41
56040;BME280;43937;41.366;2.072;2022-09-12T08:59:22;100676.53;;;33.37;59.31
56040;BME280;43937;41.366;2.072;2022-09-12T09:01:53;100662.84;;;32.85;60.29
56040;BME280;43937;41.366;2.072;2022-09-12T09:17:34;100663.13;;;33.42;60.12
56040;BME280;43937;41.366;2.072;2022-09-12T09:25:57;100669.03;;;34.17;58.63
56040;BME280;43937;41.366;2.072;2022-09-12T09:28:44;100671.88;;;34.26;58.41
56040;BME280;43937;41.366;2.072;2022-09-12T09:31:19;100670.91;;;34.39;56.67
56040;BME280;43937;41.366;2.072;2022-09-12T09:33:50;100671.75;;;34.00;58.33
56040;BME280;43937;41.366;2.072;2022-09-12T09:36:44;100673.03;;;34.25;57.05
56040;BME280;43937;41.366;2.072;2022-09-12T09:44:41;100658.69;;;34.70;55.42
56040;BME280;43937;41.366;2.072;2022-09-12T09:47:09;100637.56;;;34.76;55.76
56040;BME280;43937;41.366;2.072;2022-09-12T09:49:36;100649.22;;;34.83;54.69
56040;BME280;43937;41.366;2.072;2022-09-12T09:52:05;100642.97;;;34.46;54.94
56040;BME280;43937;41.366;2.072;2022-09-12T09:55:00;100649.22;;;34.65;55.35
56040;BME280;43937;41.366;2.072;2022-09-12T10:00:33;100651.94;;;33.28;59.90
56040;BME280;43937;41.366;2.072;2022-09-12T10:05:52;100651.13;;;33.37;59.76
56040;BME280;43937;41.366;2.072;2022-09-12T10:08:39;100638.13;;;33.81;58.80
56040;BME280;43937;41.366;2.072;2022-09-12T10:13:52;100637.69;;;33.56;59.40
56040;BME280;43937;41.366;2.072;2022-09-12T10:18:56;100627.72;;;33.36;59.86
56040;BME280;43937;41.366;2.072;2022-09-12T10:21:46;100628.69;;;33.54;59.45
56040;BME280;43937;41.366;2.072;2022-09-12T10:24:18;100635.91;;;33.69;59.74
56040;BME280;43937;41.366;2.072;2022-09-12T10:26:54;100633.16;;;33.01;61.82
56040;BME280;43937;41.366;2.072;2022-09-12T10:29:25;100620.28;;;32.73;61.92
56040;BME280;43937;41.366;2.072;2022-09-12T10:31:54;100627.03;;;33.53;59.71
56040;BME280;43937;41.366;2.072;2022-09-12T10:34:37;100620.72;;;34.53;57.05
56040;BME280;43937;41.366;2.072;2022-09-12T10:37:09;100607.44;;;35.15;55.53
56040;BME280;43937;41.366;2.072;2022-09-12T10:39:40;100605.13;;;35.17;54.27
56040;BME280;43937;41.366;2.072;2022-09-12T10:42:06;100622.09;;;35.17;54.13
56040;BME280;43937;41.366;2.072;2022-09-12T10:44:33;100609.63;;;34.83;54.51
56040;BME280;43937;41.366;2.072;2022-09-12T10:47:18;100612.63;;;34.95;55.05
56040;BME280;43937;41.366;2.072;2022-09-12T10:49:44;100618.09;;;34.57;55.55
56040;BME280;43937;41.366;2.072;2022-09-12T10:52:20;100620.09;;;35.08;54.43
56040;BME280;43937;41.366;2.072;2022-09-12T10:54:47;100619.56;;;35.32;54.13
56040;BME280;43937;41.366;2.072;2022-09-12T11:16:33;100602.72;;;35.36;54.10
56040;BME280;43937;41.366;2.072;2022-09-12T11:25:10;100598.44;;;34.26;56.94
56040;BME280;43937;41.366;2.072;2022-09-12T11:28:02;100595.94;;;34.33;57.17
56040;BME280;43937;41.366;2.072;2022-09-12T11:30:38;100589.94;;;34.17;56.13
56040;BME280;43937;41.366;2.072;2022-09-12T11:35:54;100577.16;;;33.80;57.39
56040;BME280;43937;41.366;2.072;2022-09-12T11:41:06;100564.75;;;33.89;58.25
56040;BME280;43937;41.366;2.072;2022-09-12T11:43:55;100567.84;;;33.79;58.45
56040;BME280;43937;41.366;2.072;2022-09-12T11:46:43;100574.94;;;33.59;59.39
56040;BME280;43937;41.366;2.072;2022-09-12T11:56:50;100561.88;;;33.41;58.72
56040;BME280;43937;41.366;2.072;2022-09-12T11:59:34;100561.63;;;33.51;57.84
56040;BME280;43937;41.366;2.072;2022-09-12T12:02:02;100558.69;;;33.34;58.96
56040;BME280;43937;41.366;2.072;2022-09-12T12:04:38;100547.06;;;33.66;58.07
56040;BME280;43937;41.366;2.072;2022-09-12T12:07:08;100554.63;;;33.97;57.05
56040;BME280;43937;41.366;2.072;2022-09-12T12:09:35;100552.59;;;33.89;57.40
56040;BME280;43937;41.366;2.072;2022-09-12T12:12:06;100549.34;;;34.13;56.57
56040;BME280;43937;41.366;2.072;2022-09-12T12:14:40;100546.91;;;34.29;55.83
56040;BME280;43937;41.366;2.072;2022-09-12T12:17:22;100547.97;;;33.93;57.12
56040;BME280;43937;41.366;2.072;2022-09-12T12:20:02;100555.44;;;33.89;56.79
56040;BME280;43937;41.366;2.072;2022-09-12T12:22:29;100545.78;;;33.81;57.69
56040;BME280;43937;41.366;2.072;2022-09-12T12:27:54;100544.78;;;33.86;57.62
56040;BME280;43937;41.366;2.072;2022-09-12T12:38:32;100541.63;;;33.39;59.41
56040;BME280;43937;41.366;2.072;2022-09-12T12:43:42;100541.63;;;33.08;60.28
56040;BME280;43937;41.366;2.072;2022-09-12T12:46:10;100526.03;;;33.10;60.45
56040;BME280;43937;41.366;2.072;2022-09-12T12:51:38;100543.53;;;33.52;58.65
56040;BME280;43937;41.366;2.072;2022-09-12T12:54:04;100542.88;;;33.55;59.63
56040;BME280;43937;41.366;2.072;2022-09-12T12:56:41;100535.13;;;32.98;60.98
56040;BME280;43937;41.366;2.072;2022-09-12T12:59:22;100543.88;;;33.28;61.44
56040;BME280;43937;41.366;2.072;2022-09-12T13:01:56;100529.97;;;33.32;60.84
56040;BME280;43937;41.366;2.072;2022-09-12T13:04:27;100534.94;;;33.26;60.84
56040;BME280;43937;41.366;2.072;2022-09-12T13:09:38;100521.91;;;33.16;60.43
56040;BME280;43937;41.366;2.072;2022-09-12T13:12:09;100524.59;;;33.21;60.75
56040;BME280;43937;41.366;2.072;2022-09-12T13:14:52;100528.16;;;32.82;62.56
56040;BME280;43937;41.366;2.072;2022-09-12T13:17:37;100530.22;;;32.68;62.17
56040;BME280;43937;41.366;2.072;2022-09-12T13:20:13;100526.22;;;32.10;65.16
56040;BME280;43937;41.366;2.072;2022-09-12T13:22:44;100520.72;;;32.05;65.38
56040;BME280;43937;41.366;2.072;2022-09-12T13:25:33;100512.78;;;31.79;66.79
56040;BME280;43937;41.366;2.072;2022-09-12T13:28:19;100507.59;;;31.59;67.21
56040;BME280;43937;41.366;2.072;2022-09-12T13:36:06;100503.41;;;31.98;66.20
56040;BME280;43937;41.366;2.072;2022-09-12T13:44:13;100500.25;;;32.72;65.07
56040;BME280;43937;41.366;2.072;2022-09-12T13:46:40;100481.25;;;32.86;63.97
56040;BME280;43937;41.366;2.072;2022-09-12T13:51:43;100506.78;;;32.58;65.35
56040;BME280;43937;41.366;2.072;2022-09-12T13:54:15;100490.16;;;32.79;64.31
56040;BME280;43937;41.366;2.072;2022-09-12T13:56:47;100495.41;;;32.95;64.35
56040;BME280;43937;41.366;2.072;2022-09-12T13:59:12;100500.53;;;32.93;64.24
56040;BME280;43937;41.366;2.072;2022-09-12T14:01:43;100505.03;;;33.25;62.04
56040;BME280;43937;41.366;2.072;2022-09-12T14:04:23;100499.13;;;33.35;62.08
56040;BME280;43937;41.366;2.072;2022-09-12T14:07:20;100504.44;;;33.37;61.46
56040;BME280;43937;41.366;2.072;2022-09-12T14:09:55;100504.72;;;33.26;61.99
56040;BME280;43937;41.366;2.072;2022-09-12T14:14:54;100485.31;;;32.71;63.26
56040;BME280;43937;41.366;2.072;2022-09-12T14:19:58;100490.72;;;32.59;63.57
56040;BME280;43937;41.366;2.072;2022-09-12T14:22:26;100502.56;;;32.47;65.63
56040;BME280;43937;41.366;2.072;2022-09-12T14:24:54;100493.69;;;32.40;65.12
56040;BME280;43937;41.366;2.072;2022-09-12T14:27:23;100483.88;;;32.37;65.12
56040;BME280;43937;41.366;2.072;2022-09-12T14:29:59;100483.97;;;32.10;67.48
56040;BME280;43937;41.366;2.072;2022-09-12T14:32:26;100491.03;;;32.21;66.34
56040;BME280;43937;41.366;2.072;2022-09-12T14:35:23;100482.56;;;31.85;66.87
56040;BME280;43937;41.366;2.072;2022-09-12T14:37:50;100483.00;;;31.78;67.66
56040;BME280;43937;41.366;2.072;2022-09-12T14:40:21;100480.94;;;32.20;66.85
56040;BME280;43937;41.366;2.072;2022-09-12T14:42:47;100484.97;;;32.28;65.71
56040;BME280;43937;41.366;2.072;2022-09-12T14:45:23;100486.91;;;32.41;66.09
56040;BME280;43937;41.366;2.072;2022-09-12T14:47:49;100487.66;;;32.33;66.11
56040;BME280;43937;41.366;2.072;2022-09-12T14:50:24;100479.50;;;32.45;66.21
56040;BME280;43937;41.366;2.072;2022-09-12T14:53:09;100481.75;;;32.57;65.81
56040;BME280;43937;41.366;2.072;2022-09-12T14:55:52;100481.03;;;32.51;65.80
56040;BME280;43937;41.366;2.072;2022-09-12T14:58:24;100481.44;;;32.22;65.68
56040;BME280;43937;41.366;2.072;2022-09-12T15:03:29;100467.47;;;31.67;68.49
56040;BME280;43937;41.366;2.072;2022-09-12T15:05:55;100465.72;;;31.57;69.34
56040;BME280;43937;41.366;2.072;2022-09-12T15:08:21;100459.69;;;31.50;69.27
56040;BME280;43937;41.366;2.072;2022-09-12T15:10:47;100465.00;;;31.52;69.18
56040;BME280;43937;41.366;2.072;2022-09-12T15:13:23;100451.94;;;31.28;70.62
56040;BME280;43937;41.366;2.072;2022-09-12T15:15:53;100451.31;;;31.31;69.36
56040;BME280;43937;41.366;2.072;2022-09-12T15:18:21;100451.22;;;31.09;71.37
56040;BME280;43937;41.366;2.072;2022-09-12T15:20:49;100446.97;;;31.11;71.03
56040;BME280;43937;41.366;2.072;2022-09-12T15:26:03;100442.97;;;30.85;72.03
56040;BME280;43937;41.366;2.072;2022-09-12T15:28:29;100436.38;;;30.43;73.95
56040;BME280;43937;41.366;2.072;2022-09-12T15:30:56;100435.56;;;30.42;74.81
56040;BME280;43937;41.366;2.072;2022-09-12T15:33:24;100440.34;;;30.55;74.77
56040;BME280;43937;41.366;2.072;2022-09-12T15:35:50;100440.28;;;30.61;73.23
56040;BME280;43937;41.366;2.072;2022-09-12T15:38:16;100419.38;;;30.67;72.92
56040;BME280;43937;41.366;2.072;2022-09-12T15:40:43;100418.09;;;30.45;74.07
56040;BME280;43937;41.366;2.072;2022-09-12T15:43:12;100438.84;;;30.63;74.24
56040;BME280;43937;41.366;2.072;2022-09-12T15:45:40;100431.38;;;30.72;73.84
56040;BME280;43937;41.366;2.072;2022-09-12T15:48:06;100435.69;;;30.65;72.71
56040;BME280;43937;41.366;2.072;2022-09-12T15:50:31;100431.44;;;30.53;73.95
56040;BME280;43937;41.366;2.072;2022-09-12T15:52:57;100427.19;;;30.37;74.55
56040;BME280;43937;41.366;2.072;2022-09-12T15:55:28;100433.72;;;30.51;74.53
56040;BME280;43937;41.366;2.072;2022-09-12T15:57:54;100425.19;;;30.56;74.40
56040;BME280;43937;41.366;2.072;2022-09-12T16:00:20;100413.56;;;30.77;72.85
56040;BME280;43937;41.366;2.072;2022-09-12T16:02:48;100414.53;;;30.86;72.67